sensor_id;sensor_type;location;lat;lon;timestamp;temperature;humidity
23231;DHT22;11784;49.818;8.632;2023-04-12T00:02:07;14.60;60.00
23231;DHT22;11784;49.818;8.632;2023-04-12T00:04:33;14.60;59.90
23231;DHT22;11784;49.818;8.632;2023-04-12T00:07:00;14.60;59.10
23231;DHT22;11784;49.818;8.632;2023-04-12T00:09:27;14.60;59.20
23231;DHT22;11784;49.818;8.632;2023-04-12T00:11:55;14.60;59.40
23231;DHT22;11784;49.818;8.632;2023-04-12T00:14:22;14.70;58.60
23231;DHT22;11784;49.818;8.632;2023-04-12T00:16:48;14.70;58.70
23231;DHT22;11784;49.818;8.632;2023-04-12T00:19:13;14.70;59.00
23231;DHT22;11784;49.818;8.632;2023-04-12T00:21:41;14.70;59.00
23231;DHT22;11784;49.818;8.632;2023-04-12T00:24:07;14.70;59.30
23231;DHT22;11784;49.818;8.632;2023-04-12T00:26:32;14.70;58.90
23231;DHT22;11784;49.818;8.632;2023-04-12T00:28:58;14.70;58.60
23231;DHT22;11784;49.818;8.632;2023-04-12T00:31:23;14.70;57.60
23231;DHT22;11784;49.818;8.632;2023-04-12T00:33:49;14.70;58.00
23231;DHT22;11784;49.818;8.632;2023-04-12T00:36:14;14.70;58.90
23231;DHT22;11784;49.818;8.632;2023-04-12T00:38:40;14.60;59.60
23231;DHT22;11784;49.818;8.632;2023-04-12T00:41:06;14.60;59.90
23231;DHT22;11784;49.818;8.632;2023-04-12T00:43:32;14.50;60.80
23231;DHT22;11784;49.818;8.632;2023-04-12T00:45:58;14.50;61.60
23231;DHT22;11784;49.818;8.632;2023-04-12T00:48:24;14.50;62.70
23231;DHT22;11784;49.818;8.632;2023-04-12T00:50:52;14.40;62.90
23231;DHT22;11784;49.818;8.632;2023-04-12T00:53:20;14.40;63.60
23231;DHT22;11784;49.818;8.632;2023-04-12T00:55:48;14.40;64.60
23231;DHT22;11784;49.818;8.632;2023-04-12T00:58:14;14.30;63.80
23231;DHT22;11784;49.818;8.632;2023-04-12T01:00:40;14.30;65.00
23231;DHT22;11784;49.818;8.632;2023-04-12T01:03:09;14.30;65.40
23231;DHT22;11784;49.818;8.632;2023-04-12T01:05:44;14.30;66.30
23231;DHT22;11784;49.818;8.632;2023-04-12T01:11:24;14.20;66.30
23231;DHT22;11784;49.818;8.632;2023-04-12T01:14:02;14.20;67.80
23231;DHT22;11784;49.818;8.632;2023-04-12T01:16:50;14.20;68.60
23231;DHT22;11784;49.818;8.632;2023-04-12T01:27:56;14.20;70.60
23231;DHT22;11784;49.818;8.632;2023-04-12T01:30:26;14.10;71.30
23231;DHT22;11784;49.818;8.632;2023-04-12T01:32:54;14.10;72.00
23231;DHT22;11784;49.818;8.632;2023-04-12T01:35:21;14.10;72.50
23231;DHT22;11784;49.818;8.632;2023-04-12T01:37:47;14.10;73.20
23231;DHT22;11784;49.818;8.632;2023-04-12T01:40:13;14.10;73.00
23231;DHT22;11784;49.818;8.632;2023-04-12T01:42:39;14.00;73.90
23231;DHT22;11784;49.818;8.632;2023-04-12T01:45:05;14.10;73.80
23231;DHT22;11784;49.818;8.632;2023-04-12T01:47:32;14.00;73.60
23231;DHT22;11784;49.818;8.632;2023-04-12T01:50:20;14.00;74.40
23231;DHT22;11784;49.818;8.632;2023-04-12T01:53:04;14.00;74.80
23231;DHT22;11784;49.818;8.632;2023-04-12T01:55:30;13.90;75.30
23231;DHT22;11784;49.818;8.632;2023-04-12T01:57:58;13.90;75.60
23231;DHT22;11784;49.818;8.632;2023-04-12T02:00:24;13.90;76.00
23231;DHT22;11784;49.818;8.632;2023-04-12T02:02:51;13.80;76.40
23231;DHT22;11784;49.818;8.632;2023-04-12T02:05:17;13.80;77.70
23231;DHT22;11784;49.818;8.632;2023-04-12T02:07:44;13.80;77.20
23231;DHT22;11784;49.818;8.632;2023-04-12T02:10:13;13.70;77.10
23231;DHT22;11784;49.818;8.632;2023-04-12T02:12:40;13.70;77.60
23231;DHT22;11784;49.818;8.632;2023-04-12T02:15:06;13.70;77.30
23231;DHT22;11784;49.818;8.632;2023-04-12T02:17:35;13.70;77.60
23231;DHT22;11784;49.818;8.632;2023-04-12T02:20:03;13.70;78.30
23231;DHT22;11784;49.818;8.632;2023-04-12T02:22:34;13.60;78.40
23231;DHT22;11784;49.818;8.632;2023-04-12T02:25:00;13.60;78.90
23231;DHT22;11784;49.818;8.632;2023-04-12T02:27:27;13.60;78.90
23231;DHT22;11784;49.818;8.632;2023-04-12T02:29:53;13.60;79.30
23231;DHT22;11784;49.818;8.632;2023-04-12T02:32:18;13.60;78.80
23231;DHT22;11784;49.818;8.632;2023-04-12T02:34:45;13.60;78.80
23231;DHT22;11784;49.818;8.632;2023-04-12T02:37:16;13.60;79.50
23231;DHT22;11784;49.818;8.632;2023-04-12T02:39:42;13.50;79.30
23231;DHT22;11784;49.818;8.632;2023-04-12T02:42:09;13.50;79.70
23231;DHT22;11784;49.818;8.632;2023-04-12T02:44:36;13.50;79.70
23231;DHT22;11784;49.818;8.632;2023-04-12T02:47:01;13.50;80.00
23231;DHT22;11784;49.818;8.632;2023-04-12T02:49:27;13.50;80.70
23231;DHT22;11784;49.818;8.632;2023-04-12T02:51:53;13.40;80.80
23231;DHT22;11784;49.818;8.632;2023-04-12T02:54:18;13.40;80.80
23231;DHT22;11784;49.818;8.632;2023-04-12T02:56:44;13.40;81.00
23231;DHT22;11784;49.818;8.632;2023-04-12T02:59:09;13.40;81.40
23231;DHT22;11784;49.818;8.632;2023-04-12T03:01:35;13.40;81.80
23231;DHT22;11784;49.818;8.632;2023-04-12T03:04:03;13.40;81.40
23231;DHT22;11784;49.818;8.632;2023-04-12T03:06:28;13.40;81.50
23231;DHT22;11784;49.818;8.632;2023-04-12T03:08:54;13.40;81.30
23231;DHT22;11784;49.818;8.632;2023-04-12T03:11:21;13.40;81.70
23231;DHT22;11784;49.818;8.632;2023-04-12T03:13:47;13.30;81.80
23231;DHT22;11784;49.818;8.632;2023-04-12T03:16:25;13.30;82.40
23231;DHT22;11784;49.818;8.632;2023-04-12T03:18:54;13.30;82.40
23231;DHT22;11784;49.818;8.632;2023-04-12T03:21:21;13.30;82.70
23231;DHT22;11784;49.818;8.632;2023-04-12T03:23:46;13.30;82.90
23231;DHT22;11784;49.818;8.632;2023-04-12T03:26:12;13.20;82.80
23231;DHT22;11784;49.818;8.632;2023-04-12T03:28:38;13.20;83.20
23231;DHT22;11784;49.818;8.632;2023-04-12T03:31:03;13.20;83.20
23231;DHT22;11784;49.818;8.632;2023-04-12T03:33:29;13.20;83.80
23231;DHT22;11784;49.818;8.632;2023-04-12T03:35:54;13.20;83.60
23231;DHT22;11784;49.818;8.632;2023-04-12T03:38:20;13.20;84.10
23231;DHT22;11784;49.818;8.632;2023-04-12T03:40:45;13.20;84.60
23231;DHT22;11784;49.818;8.632;2023-04-12T03:43:11;13.20;84.60
23231;DHT22;11784;49.818;8.632;2023-04-12T03:45:36;13.30;84.70
23231;DHT22;11784;49.818;8.632;2023-04-12T03:48:02;13.20;84.80
23231;DHT22;11784;49.818;8.632;2023-04-12T03:50:29;13.20;85.00
23231;DHT22;11784;49.818;8.632;2023-04-12T03:52:56;13.20;85.00
23231;DHT22;11784;49.818;8.632;2023-04-12T03:55:21;13.20;84.80
23231;DHT22;11784;49.818;8.632;2023-04-12T03:57:47;13.20;85.30
23231;DHT22;11784;49.818;8.632;2023-04-12T04:00:13;13.20;86.00
23231;DHT22;11784;49.818;8.632;2023-04-12T04:02:39;13.20;85.60
23231;DHT22;11784;49.818;8.632;2023-04-12T04:05:04;13.20;85.60
23231;DHT22;11784;49.818;8.632;2023-04-12T04:07:30;13.20;86.10
23231;DHT22;11784;49.818;8.632;2023-04-12T04:09:58;13.20;86.00
23231;DHT22;11784;49.818;8.632;2023-04-12T04:12:24;13.20;85.70
23231;DHT22;11784;49.818;8.632;2023-04-12T04:14:49;13.30;86.00
23231;DHT22;11784;49.818;8.632;2023-04-12T04:17:15;13.30;86.30
23231;DHT22;11784;49.818;8.632;2023-04-12T04:19:40;13.30;86.40
23231;DHT22;11784;49.818;8.632;2023-04-12T04:22:06;13.30;86.30
23231;DHT22;11784;49.818;8.632;2023-04-12T04:24:31;13.30;86.10
23231;DHT22;11784;49.818;8.632;2023-04-12T04:26:59;13.30;85.70
23231;DHT22;11784;49.818;8.632;2023-04-12T04:29:25;13.30;85.80
23231;DHT22;11784;49.818;8.632;2023-04-12T04:31:51;13.30;85.50
23231;DHT22;11784;49.818;8.632;2023-04-12T04:34:17;13.30;85.40
23231;DHT22;11784;49.818;8.632;2023-04-12T04:36:43;13.30;85.50
23231;DHT22;11784;49.818;8.632;2023-04-12T04:39:09;13.30;85.40
23231;DHT22;11784;49.818;8.632;2023-04-12T04:41:34;13.30;85.50
23231;DHT22;11784;49.818;8.632;2023-04-12T04:44:07;13.30;85.20
23231;DHT22;11784;49.818;8.632;2023-04-12T04:46:36;13.30;85.10
23231;DHT22;11784;49.818;8.632;2023-04-12T04:49:02;13.30;85.50
23231;DHT22;11784;49.818;8.632;2023-04-12T04:51:28;13.30;85.40
23231;DHT22;11784;49.818;8.632;2023-04-12T04:53:54;13.30;85.40
23231;DHT22;11784;49.818;8.632;2023-04-12T04:56:19;13.30;85.80
23231;DHT22;11784;49.818;8.632;2023-04-12T04:58:47;13.30;86.30
23231;DHT22;11784;49.818;8.632;2023-04-12T05:01:13;13.30;86.30
23231;DHT22;11784;49.818;8.632;2023-04-12T05:03:41;13.30;86.70
23231;DHT22;11784;49.818;8.632;2023-04-12T05:06:09;13.40;85.90
23231;DHT22;11784;49.818;8.632;2023-04-12T05:08:35;13.30;85.40
23231;DHT22;11784;49.818;8.632;2023-04-12T05:11:01;13.30;85.50
23231;DHT22;11784;49.818;8.632;2023-04-12T05:13:26;13.30;85.50
23231;DHT22;11784;49.818;8.632;2023-04-12T05:15:52;13.30;85.50
23231;DHT22;11784;49.818;8.632;2023-04-12T05:18:17;13.40;85.70
23231;DHT22;11784;49.818;8.632;2023-04-12T05:20:43;13.40;85.50
23231;DHT22;11784;49.818;8.632;2023-04-12T05:23:08;13.40;85.60
23231;DHT22;11784;49.818;8.632;2023-04-12T05:25:34;13.30;85.60
23231;DHT22;11784;49.818;8.632;2023-04-12T05:28:00;13.40;85.20
23231;DHT22;11784;49.818;8.632;2023-04-12T05:30:25;13.40;85.10
23231;DHT22;11784;49.818;8.632;2023-04-12T05:32:51;13.40;86.00
23231;DHT22;11784;49.818;8.632;2023-04-12T05:35:16;13.30;86.10
23231;DHT22;11784;49.818;8.632;2023-04-12T05:37:42;13.40;86.10
23231;DHT22;11784;49.818;8.632;2023-04-12T05:40:08;13.40;86.60
23231;DHT22;11784;49.818;8.632;2023-04-12T05:42:36;13.30;86.30
23231;DHT22;11784;49.818;8.632;2023-04-12T05:45:02;13.40;86.00
23231;DHT22;11784;49.818;8.632;2023-04-12T05:47:28;13.40;85.70
23231;DHT22;11784;49.818;8.632;2023-04-12T05:49:54;13.40;85.70
23231;DHT22;11784;49.818;8.632;2023-04-12T05:52:20;13.40;85.00
23231;DHT22;11784;49.818;8.632;2023-04-12T05:54:45;13.40;84.70
23231;DHT22;11784;49.818;8.632;2023-04-12T05:57:11;13.40;84.40
23231;DHT22;11784;49.818;8.632;2023-04-12T05:59:36;13.40;83.50
23231;DHT22;11784;49.818;8.632;2023-04-12T06:02:02;13.40;83.80
23231;DHT22;11784;49.818;8.632;2023-04-12T06:04:28;13.30;84.80
23231;DHT22;11784;49.818;8.632;2023-04-12T06:06:53;13.30;85.70
23231;DHT22;11784;49.818;8.632;2023-04-12T06:09:20;13.30;86.20
23231;DHT22;11784;49.818;8.632;2023-04-12T06:11:46;13.30;86.00
23231;DHT22;11784;49.818;8.632;2023-04-12T06:14:11;13.30;86.00
23231;DHT22;11784;49.818;8.632;2023-04-12T06:16:37;13.40;85.20
23231;DHT22;11784;49.818;8.632;2023-04-12T06:19:02;13.40;85.40
23231;DHT22;11784;49.818;8.632;2023-04-12T06:21:28;13.40;86.00
23231;DHT22;11784;49.818;8.632;2023-04-12T06:23:54;13.40;85.70
23231;DHT22;11784;49.818;8.632;2023-04-12T06:26:19;13.40;85.20
23231;DHT22;11784;49.818;8.632;2023-04-12T06:28:45;13.40;85.40
23231;DHT22;11784;49.818;8.632;2023-04-12T06:31:11;13.40;85.20
23231;DHT22;11784;49.818;8.632;2023-04-12T06:33:36;13.40;85.70
23231;DHT22;11784;49.818;8.632;2023-04-12T06:36:02;13.40;85.50
23231;DHT22;11784;49.818;8.632;2023-04-12T06:38:27;13.40;85.60
23231;DHT22;11784;49.818;8.632;2023-04-12T06:40:53;13.40;85.70
23231;DHT22;11784;49.818;8.632;2023-04-12T06:43:18;13.40;85.50
23231;DHT22;11784;49.818;8.632;2023-04-12T06:45:45;13.40;86.10
23231;DHT22;11784;49.818;8.632;2023-04-12T06:48:10;13.40;85.70
23231;DHT22;11784;49.818;8.632;2023-04-12T06:50:36;13.40;86.40
23231;DHT22;11784;49.818;8.632;2023-04-12T06:53:01;13.40;86.20
23231;DHT22;11784;49.818;8.632;2023-04-12T06:55:27;13.40;86.60
23231;DHT22;11784;49.818;8.632;2023-04-12T06:57:54;13.40;86.60
23231;DHT22;11784;49.818;8.632;2023-04-12T07:00:19;13.40;86.60
23231;DHT22;11784;49.818;8.632;2023-04-12T07:02:45;13.40;86.70
23231;DHT22;11784;49.818;8.632;2023-04-12T07:05:11;13.50;87.00
23231;DHT22;11784;49.818;8.632;2023-04-12T07:07:36;13.50;87.30
23231;DHT22;11784;49.818;8.632;2023-04-12T07:10:02;13.50;86.90
23231;DHT22;11784;49.818;8.632;2023-04-12T07:12:28;13.60;86.50
23231;DHT22;11784;49.818;8.632;2023-04-12T07:14:54;13.60;86.50
23231;DHT22;11784;49.818;8.632;2023-04-12T07:17:20;13.60;86.70
23231;DHT22;11784;49.818;8.632;2023-04-12T07:19:45;13.60;87.10
23231;DHT22;11784;49.818;8.632;2023-04-12T07:22:12;13.70;86.80
23231;DHT22;11784;49.818;8.632;2023-04-12T07:24:37;13.70;86.70
23231;DHT22;11784;49.818;8.632;2023-04-12T07:27:02;13.80;87.30
23231;DHT22;11784;49.818;8.632;2023-04-12T07:29:28;13.80;87.50
23231;DHT22;11784;49.818;8.632;2023-04-12T07:31:54;13.80;86.80
23231;DHT22;11784;49.818;8.632;2023-04-12T07:34:19;13.80;87.20
23231;DHT22;11784;49.818;8.632;2023-04-12T07:36:45;13.90;86.90
23231;DHT22;11784;49.818;8.632;2023-04-12T07:39:10;13.90;86.60
23231;DHT22;11784;49.818;8.632;2023-04-12T07:41:37;13.90;86.90
23231;DHT22;11784;49.818;8.632;2023-04-12T07:44:03;14.00;87.30
23231;DHT22;11784;49.818;8.632;2023-04-12T07:46:29;14.00;86.80
23231;DHT22;11784;49.818;8.632;2023-04-12T07:48:54;14.00;86.20
23231;DHT22;11784;49.818;8.632;2023-04-12T07:51:20;14.10;86.40
23231;DHT22;11784;49.818;8.632;2023-04-12T07:53:45;14.10;86.60
23231;DHT22;11784;49.818;8.632;2023-04-12T07:56:13;14.10;86.40
23231;DHT22;11784;49.818;8.632;2023-04-12T07:58:39;14.20;86.80
23231;DHT22;11784;49.818;8.632;2023-04-12T08:01:05;14.20;86.60
23231;DHT22;11784;49.818;8.632;2023-04-12T08:03:31;14.20;86.60
23231;DHT22;11784;49.818;8.632;2023-04-12T08:05:56;14.20;86.50
23231;DHT22;11784;49.818;8.632;2023-04-12T08:08:22;14.30;86.10
23231;DHT22;11784;49.818;8.632;2023-04-12T08:10:50;14.30;85.90
23231;DHT22;11784;49.818;8.632;2023-04-12T08:13:16;14.30;86.20
23231;DHT22;11784;49.818;8.632;2023-04-12T08:15:41;14.30;86.30
23231;DHT22;11784;49.818;8.632;2023-04-12T08:18:08;14.30;86.60
23231;DHT22;11784;49.818;8.632;2023-04-12T08:20:34;14.30;86.90
23231;DHT22;11784;49.818;8.632;2023-04-12T08:23:00;14.30;86.40
23231;DHT22;11784;49.818;8.632;2023-04-12T08:25:26;14.30;86.70
23231;DHT22;11784;49.818;8.632;2023-04-12T08:27:51;14.30;86.70
23231;DHT22;11784;49.818;8.632;2023-04-12T08:30:17;14.30;86.60
23231;DHT22;11784;49.818;8.632;2023-04-12T08:32:43;14.30;87.30
23231;DHT22;11784;49.818;8.632;2023-04-12T08:35:09;14.30;87.20
23231;DHT22;11784;49.818;8.632;2023-04-12T08:37:35;14.30;87.70
23231;DHT22;11784;49.818;8.632;2023-04-12T08:40:07;14.30;88.00
23231;DHT22;11784;49.818;8.632;2023-04-12T08:42:34;14.30;87.90
23231;DHT22;11784;49.818;8.632;2023-04-12T08:45:09;14.30;88.40
23231;DHT22;11784;49.818;8.632;2023-04-12T08:47:43;14.40;88.50
23231;DHT22;11784;49.818;8.632;2023-04-12T08:50:10;14.40;88.30
23231;DHT22;11784;49.818;8.632;2023-04-12T08:52:38;14.40;88.50
23231;DHT22;11784;49.818;8.632;2023-04-12T08:55:05;14.40;88.30
23231;DHT22;11784;49.818;8.632;2023-04-12T08:57:31;14.40;87.40
23231;DHT22;11784;49.818;8.632;2023-04-12T08:59:59;14.40;89.00
23231;DHT22;11784;49.818;8.632;2023-04-12T09:02:25;14.40;88.70
23231;DHT22;11784;49.818;8.632;2023-04-12T09:04:51;14.30;88.50
23231;DHT22;11784;49.818;8.632;2023-04-12T09:07:18;14.30;89.10
23231;DHT22;11784;49.818;8.632;2023-04-12T09:09:45;14.30;89.70
23231;DHT22;11784;49.818;8.632;2023-04-12T09:12:11;14.20;90.00
23231;DHT22;11784;49.818;8.632;2023-04-12T09:14:38;14.20;90.30
23231;DHT22;11784;49.818;8.632;2023-04-12T09:17:04;14.30;90.10
23231;DHT22;11784;49.818;8.632;2023-04-12T09:19:34;14.30;90.00
23231;DHT22;11784;49.818;8.632;2023-04-12T09:22:00;14.30;90.00
23231;DHT22;11784;49.818;8.632;2023-04-12T09:24:27;14.30;89.90
23231;DHT22;11784;49.818;8.632;2023-04-12T09:27:03;14.40;90.00
23231;DHT22;11784;49.818;8.632;2023-04-12T09:29:30;14.40;89.50
23231;DHT22;11784;49.818;8.632;2023-04-12T09:32:04;14.40;89.20
23231;DHT22;11784;49.818;8.632;2023-04-12T09:34:30;14.40;89.40
23231;DHT22;11784;49.818;8.632;2023-04-12T09:36:57;14.40;89.50
23231;DHT22;11784;49.818;8.632;2023-04-12T09:39:30;14.50;90.00
23231;DHT22;11784;49.818;8.632;2023-04-12T09:42:08;14.50;90.10
23231;DHT22;11784;49.818;8.632;2023-04-12T09:44:34;14.50;90.20
23231;DHT22;11784;49.818;8.632;2023-04-12T09:47:00;14.60;90.30
23231;DHT22;11784;49.818;8.632;2023-04-12T09:49:40;14.60;89.80
23231;DHT22;11784;49.818;8.632;2023-04-12T09:52:07;14.70;90.20
23231;DHT22;11784;49.818;8.632;2023-04-12T09:57:05;14.80;90.10
23231;DHT22;11784;49.818;8.632;2023-04-12T09:59:35;14.80;90.00
23231;DHT22;11784;49.818;8.632;2023-04-12T10:02:15;14.70;89.30
23231;DHT22;11784;49.818;8.632;2023-04-12T10:04:42;14.70;90.00
23231;DHT22;11784;49.818;8.632;2023-04-12T10:07:07;14.60;90.20
23231;DHT22;11784;49.818;8.632;2023-04-12T10:09:36;14.60;90.40
23231;DHT22;11784;49.818;8.632;2023-04-12T10:12:01;14.60;90.40
23231;DHT22;11784;49.818;8.632;2023-04-12T10:14:30;14.60;90.30
23231;DHT22;11784;49.818;8.632;2023-04-12T10:16:57;14.60;90.60
23231;DHT22;11784;49.818;8.632;2023-04-12T10:19:24;14.60;90.70
23231;DHT22;11784;49.818;8.632;2023-04-12T10:21:51;14.60;91.20
23231;DHT22;11784;49.818;8.632;2023-04-12T10:24:17;14.60;91.20
23231;DHT22;11784;49.818;8.632;2023-04-12T10:26:42;14.60;91.20
23231;DHT22;11784;49.818;8.632;2023-04-12T10:31:46;14.60;91.20
23231;DHT22;11784;49.818;8.632;2023-04-12T10:34:12;14.60;91.50
23231;DHT22;11784;49.818;8.632;2023-04-12T10:36:54;14.60;91.50
23231;DHT22;11784;49.818;8.632;2023-04-12T10:39:43;14.60;91.50
23231;DHT22;11784;49.818;8.632;2023-04-12T10:42:28;14.70;91.50
23231;DHT22;11784;49.818;8.632;2023-04-12T10:50:30;14.70;91.60
23231;DHT22;11784;49.818;8.632;2023-04-12T10:55:49;14.90;92.00
23231;DHT22;11784;49.818;8.632;2023-04-12T11:01:15;15.20;91.90
23231;DHT22;11784;49.818;8.632;2023-04-12T11:04:18;15.40;91.10
23231;DHT22;11784;49.818;8.632;2023-04-12T11:07:00;15.60;90.60
23231;DHT22;11784;49.818;8.632;2023-04-12T11:09:37;15.70;90.20
23231;DHT22;11784;49.818;8.632;2023-04-12T11:14:50;15.70;89.40
23231;DHT22;11784;49.818;8.632;2023-04-12T11:19:43;15.50;89.20
23231;DHT22;11784;49.818;8.632;2023-04-12T11:22:12;15.50;90.10
23231;DHT22;11784;49.818;8.632;2023-04-12T11:24:39;15.40;90.30
23231;DHT22;11784;49.818;8.632;2023-04-12T11:27:07;15.40;90.30
23231;DHT22;11784;49.818;8.632;2023-04-12T11:29:33;15.40;90.60
23231;DHT22;11784;49.818;8.632;2023-04-12T11:32:01;15.40;90.70
23231;DHT22;11784;49.818;8.632;2023-04-12T11:34:31;15.50;90.90
23231;DHT22;11784;49.818;8.632;2023-04-12T11:36:57;15.50;90.90
23231;DHT22;11784;49.818;8.632;2023-04-12T11:39:25;15.50;90.70
23231;DHT22;11784;49.818;8.632;2023-04-12T11:41:51;15.50;90.70
23231;DHT22;11784;49.818;8.632;2023-04-12T11:44:17;15.50;90.90
23231;DHT22;11784;49.818;8.632;2023-04-12T11:46:44;15.50;90.80
23231;DHT22;11784;49.818;8.632;2023-04-12T11:49:14;15.50;90.90
23231;DHT22;11784;49.818;8.632;2023-04-12T11:51:41;15.50;91.00
23231;DHT22;11784;49.818;8.632;2023-04-12T11:54:06;15.50;90.80
23231;DHT22;11784;49.818;8.632;2023-04-12T11:56:32;15.50;90.90
23231;DHT22;11784;49.818;8.632;2023-04-12T11:58:58;15.60;91.10
23231;DHT22;11784;49.818;8.632;2023-04-12T12:01:23;15.70;90.90
23231;DHT22;11784;49.818;8.632;2023-04-12T12:03:49;15.80;90.80
23231;DHT22;11784;49.818;8.632;2023-04-12T12:06:15;15.80;90.90
23231;DHT22;11784;49.818;8.632;2023-04-12T12:08:42;15.90;90.90
23231;DHT22;11784;49.818;8.632;2023-04-12T12:11:08;15.90;91.00
23231;DHT22;11784;49.818;8.632;2023-04-12T12:13:54;16.00;90.60
23231;DHT22;11784;49.818;8.632;2023-04-12T12:16:25;16.10;90.50
23231;DHT22;11784;49.818;8.632;2023-04-12T12:18:52;16.10;90.70
23231;DHT22;11784;49.818;8.632;2023-04-12T12:21:17;16.10;90.60
23231;DHT22;11784;49.818;8.632;2023-04-12T12:23:44;16.10;91.10
23231;DHT22;11784;49.818;8.632;2023-04-12T12:26:22;16.00;91.60
23231;DHT22;11784;49.818;8.632;2023-04-12T12:28:53;16.00;91.90
23231;DHT22;11784;49.818;8.632;2023-04-12T12:31:23;15.90;92.00
23231;DHT22;11784;49.818;8.632;2023-04-12T12:33:52;15.80;92.40
23231;DHT22;11784;49.818;8.632;2023-04-12T12:36:18;15.80;92.80
23231;DHT22;11784;49.818;8.632;2023-04-12T12:38:47;15.70;92.80
23231;DHT22;11784;49.818;8.632;2023-04-12T12:41:23;15.70;92.80
23231;DHT22;11784;49.818;8.632;2023-04-12T12:43:50;15.60;93.00
23231;DHT22;11784;49.818;8.632;2023-04-12T12:46:17;15.50;93.10
23231;DHT22;11784;49.818;8.632;2023-04-12T12:48:44;15.50;93.50
23231;DHT22;11784;49.818;8.632;2023-04-12T12:51:11;15.40;93.70
23231;DHT22;11784;49.818;8.632;2023-04-12T12:53:38;15.40;93.60
23231;DHT22;11784;49.818;8.632;2023-04-12T12:56:05;15.40;93.50
23231;DHT22;11784;49.818;8.632;2023-04-12T12:58:31;15.40;93.50
23231;DHT22;11784;49.818;8.632;2023-04-12T13:00:56;15.40;93.60
23231;DHT22;11784;49.818;8.632;2023-04-12T13:03:23;15.30;93.90
23231;DHT22;11784;49.818;8.632;2023-04-12T13:05:49;15.30;94.10
23231;DHT22;11784;49.818;8.632;2023-04-12T13:08:15;15.30;94.10
23231;DHT22;11784;49.818;8.632;2023-04-12T13:10:40;15.30;94.40
23231;DHT22;11784;49.818;8.632;2023-04-12T13:13:06;15.30;94.50
23231;DHT22;11784;49.818;8.632;2023-04-12T13:15:31;15.30;94.40
23231;DHT22;11784;49.818;8.632;2023-04-12T13:17:56;15.30;94.50
23231;DHT22;11784;49.818;8.632;2023-04-12T13:20:22;15.40;94.50
23231;DHT22;11784;49.818;8.632;2023-04-12T13:22:48;15.40;94.40
23231;DHT22;11784;49.818;8.632;2023-04-12T13:25:14;15.40;94.30
23231;DHT22;11784;49.818;8.632;2023-04-12T13:27:40;15.30;94.30
23231;DHT22;11784;49.818;8.632;2023-04-12T13:30:06;15.30;94.70
23231;DHT22;11784;49.818;8.632;2023-04-12T13:32:31;15.20;94.70
23231;DHT22;11784;49.818;8.632;2023-04-12T13:34:57;15.20;94.80
23231;DHT22;11784;49.818;8.632;2023-04-12T13:37:22;15.10;95.30
23231;DHT22;11784;49.818;8.632;2023-04-12T13:39:49;15.00;95.90
23231;DHT22;11784;49.818;8.632;2023-04-12T13:42:15;15.00;96.20
23231;DHT22;11784;49.818;8.632;2023-04-12T13:44:41;15.00;96.20
23231;DHT22;11784;49.818;8.632;2023-04-12T13:47:07;15.00;96.50
23231;DHT22;11784;49.818;8.632;2023-04-12T13:49:33;15.00;96.60
23231;DHT22;11784;49.818;8.632;2023-04-12T13:51:58;15.00;96.60
23231;DHT22;11784;49.818;8.632;2023-04-12T13:54:24;15.00;96.80
23231;DHT22;11784;49.818;8.632;2023-04-12T13:56:49;14.90;97.20
23231;DHT22;11784;49.818;8.632;2023-04-12T13:59:15;14.90;97.50
23231;DHT22;11784;49.818;8.632;2023-04-12T14:01:41;14.80;97.80
23231;DHT22;11784;49.818;8.632;2023-04-12T14:04:07;14.80;98.20
23231;DHT22;11784;49.818;8.632;2023-04-12T14:06:32;14.80;98.80
23231;DHT22;11784;49.818;8.632;2023-04-12T14:08:58;14.80;98.90
23231;DHT22;11784;49.818;8.632;2023-04-12T14:11:23;14.80;98.60
23231;DHT22;11784;49.818;8.632;2023-04-12T14:13:49;14.90;99.00
23231;DHT22;11784;49.818;8.632;2023-04-12T14:16:15;15.00;99.00
23231;DHT22;11784;49.818;8.632;2023-04-12T14:18:41;15.10;98.90
23231;DHT22;11784;49.818;8.632;2023-04-12T14:21:07;15.10;98.70
23231;DHT22;11784;49.818;8.632;2023-04-12T14:23:33;15.20;98.80
23231;DHT22;11784;49.818;8.632;2023-04-12T14:25:58;15.30;98.60
23231;DHT22;11784;49.818;8.632;2023-04-12T14:28:24;15.30;98.40
23231;DHT22;11784;49.818;8.632;2023-04-12T14:30:58;15.30;98.20
23231;DHT22;11784;49.818;8.632;2023-04-12T14:33:25;15.30;97.80
23231;DHT22;11784;49.818;8.632;2023-04-12T14:35:51;15.40;97.70
23231;DHT22;11784;49.818;8.632;2023-04-12T14:38:18;15.40;97.30
23231;DHT22;11784;49.818;8.632;2023-04-12T14:40:44;15.40;97.40
23231;DHT22;11784;49.818;8.632;2023-04-12T14:43:09;15.40;97.20
23231;DHT22;11784;49.818;8.632;2023-04-12T14:45:38;15.30;96.30
23231;DHT22;11784;49.818;8.632;2023-04-12T14:48:03;15.30;96.40
23231;DHT22;11784;49.818;8.632;2023-04-12T14:50:29;15.30;95.90
23231;DHT22;11784;49.818;8.632;2023-04-12T14:52:55;15.30;95.40
23231;DHT22;11784;49.818;8.632;2023-04-12T14:55:20;15.30;95.60
23231;DHT22;11784;49.818;8.632;2023-04-12T14:57:47;15.30;95.20
23231;DHT22;11784;49.818;8.632;2023-04-12T15:00:13;15.30;94.80
23231;DHT22;11784;49.818;8.632;2023-04-12T15:02:39;15.30;94.50
23231;DHT22;11784;49.818;8.632;2023-04-12T15:05:06;15.30;94.20
23231;DHT22;11784;49.818;8.632;2023-04-12T15:07:33;15.30;94.20
23231;DHT22;11784;49.818;8.632;2023-04-12T15:09:58;15.30;94.30
23231;DHT22;11784;49.818;8.632;2023-04-12T15:12:25;15.40;94.00
23231;DHT22;11784;49.818;8.632;2023-04-12T15:14:52;15.40;93.80
23231;DHT22;11784;49.818;8.632;2023-04-12T15:17:21;15.30;93.80
23231;DHT22;11784;49.818;8.632;2023-04-12T15:19:48;15.40;94.00
23231;DHT22;11784;49.818;8.632;2023-04-12T15:22:14;15.40;94.20
23231;DHT22;11784;49.818;8.632;2023-04-12T15:24:39;15.40;94.30
23231;DHT22;11784;49.818;8.632;2023-04-12T15:27:05;15.40;94.30
23231;DHT22;11784;49.818;8.632;2023-04-12T15:29:31;15.50;94.40
23231;DHT22;11784;49.818;8.632;2023-04-12T15:31:56;15.50;93.90
23231;DHT22;11784;49.818;8.632;2023-04-12T15:34:22;15.60;94.00
23231;DHT22;11784;49.818;8.632;2023-04-12T15:36:49;15.60;93.70
23231;DHT22;11784;49.818;8.632;2023-04-12T15:39:16;15.70;93.20
23231;DHT22;11784;49.818;8.632;2023-04-12T15:41:42;15.70;93.00
23231;DHT22;11784;49.818;8.632;2023-04-12T15:44:09;15.70;93.20
23231;DHT22;11784;49.818;8.632;2023-04-12T15:46:38;15.80;93.30
23231;DHT22;11784;49.818;8.632;2023-04-12T15:49:03;15.80;92.80
23231;DHT22;11784;49.818;8.632;2023-04-12T15:51:29;15.70;92.30
23231;DHT22;11784;49.818;8.632;2023-04-12T15:53:56;15.70;92.40
23231;DHT22;11784;49.818;8.632;2023-04-12T15:56:22;15.70;92.60
23231;DHT22;11784;49.818;8.632;2023-04-12T15:58:51;15.70;92.30
23231;DHT22;11784;49.818;8.632;2023-04-12T16:01:17;15.70;92.70
23231;DHT22;11784;49.818;8.632;2023-04-12T16:03:43;15.80;92.40